Time;durP1;ratioP1;P1;durP2;ratioP2;P2;SDS_P1;SDS_P2;PMS_P1;PMS_P2;Temp;Humidity;BMP_temperature;BMP_pressure;BME280_temperature;BME280_humidity;BME280_pressure;Samples;Min_cycle;Max_cycle;Signal;HPM_P1;HPM_P2
2022/02/08 00:02:14;;;;;;;;;20.50;18.00;;;;;10.48;54.72;102860.44;5032886;28;45595;-64
2022/02/08 00:04:39;;;;;;;;;15.25;15.00;;;;;10.48;54.66;102848.88;5040600;28;45388;-64
2022/02/08 00:07:07;;;;;;;;;16.50;14.75;;;;;10.50;55.11;102850.63;5035786;28;47139;-64
2022/02/08 00:09:33;;;;;;;;;12.50;11.50;;;;;10.51;54.69;102856.88;5039313;28;45788;-64
2022/02/08 00:11:59;;;;;;;;;15.75;14.50;;;;;10.50;54.72;102849.75;5042335;28;45272;-64
2022/02/08 00:14:25;;;;;;;;;16.50;14.25;;;;;10.54;54.56;102851.53;5039319;28;46422;-64
2022/02/08 00:16:50;;;;;;;;;12.75;11.75;;;;;10.56;55.15;102857.78;5041425;28;46148;-65
2022/02/08 00:19:16;;;;;;;;;14.50;12.00;;;;;10.55;55.00;102858.66;5032196;28;45285;-65
2022/02/08 00:21:41;;;;;;;;;13.00;10.75;;;;;10.56;54.69;102856.00;5041874;28;45714;-65
2022/02/08 00:24:07;;;;;;;;;12.00;11.00;;;;;10.57;54.51;102859.53;5045640;28;45333;-65
2022/02/08 00:26:32;;;;;;;;;15.75;11.75;;;;;10.57;54.50;102860.47;5038582;28;45489;-65
2022/02/08 00:28:58;;;;;;;;;11.25;9.00;;;;;10.54;54.92;102844.44;5038925;28;45498;-65
2022/02/08 00:31:23;;;;;;;;;13.00;11.00;;;;;10.53;54.63;102839.97;5040556;28;45467;-65
2022/02/08 00:33:49;;;;;;;;;12.25;10.00;;;;;10.53;55.19;102839.09;5039535;28;45336;-65
2022/02/08 00:36:14;;;;;;;;;19.00;13.00;;;;;10.52;54.97;102838.19;5032127;28;45431;-65
2022/02/08 00:38:40;;;;;;;;;11.50;11.50;;;;;10.54;54.72;102844.44;5032492;28;45633;-65
2022/02/08 00:41:05;;;;;;;;;12.00;11.50;;;;;10.56;55.09;102847.09;5040573;28;45594;-65
2022/02/08 00:43:48;;;;;;;;;13.75;9.50;;;;;10.57;54.61;102848.88;5023688;28;45474;-65
2022/02/08 00:46:19;;;;;;;;;12.00;12.00;;;;;10.55;55.30;102842.63;5037878;28;45739;-65
2022/02/08 00:48:58;;;;;;;;;9.75;9.00;;;;;10.47;54.83;102829.25;5031633;28;45726;-65
2022/02/08 00:51:26;;;;;;;;;11.00;9.25;;;;;10.57;54.78;102847.09;5041306;28;45411;-65
2022/02/08 00:53:52;;;;;;;;;12.00;11.00;;;;;10.54;55.22;102838.16;5041702;28;45263;-65
2022/02/08 00:56:17;;;;;;;;;11.75;9.50;;;;;10.58;55.05;102842.66;5039247;28;45368;-65
2022/02/08 00:58:42;;;;;;;;;13.75;10.50;;;;;10.58;55.45;102839.97;5038660;28;45431;-65
2022/02/08 01:01:08;;;;;;;;;16.50;10.75;;;;;10.58;55.05;102845.31;5035737;28;45379;-65
2022/02/08 01:03:33;;;;;;;;;9.50;8.50;;;;;10.55;55.21;102837.28;5039805;28;45309;-65
2022/02/08 01:06:06;;;;;;;;;10.25;10.00;;;;;10.54;55.07;102838.16;5038883;28;46069;-65
2022/02/08 01:08:35;;;;;;;;;9.00;8.75;;;;;10.54;55.05;102839.09;5037755;28;45532;-65
2022/02/08 01:11:01;;;;;;;;;11.75;8.00;;;;;10.55;55.57;102845.31;5020833;28;45367;-65
2022/02/08 01:13:27;;;;;;;;;13.50;9.25;;;;;10.55;55.31;102847.97;5035636;28;45385;-65
2022/02/08 01:15:55;;;;;;;;;7.75;7.75;;;;;10.54;55.50;102846.19;5036410;28;46264;-65
2022/02/08 01:18:20;;;;;;;;;9.75;8.75;;;;;10.53;54.83;102850.66;5038978;28;45687;-65
2022/02/08 01:20:46;;;;;;;;;9.00;8.75;;;;;10.49;55.26;102843.53;5033723;28;45417;-65
2022/02/08 01:23:11;;;;;;;;;9.25;7.75;;;;;10.48;55.43;102851.53;5041035;28;45516;-65
2022/02/08 01:25:46;;;;;;;;;7.00;7.00;;;;;10.54;55.15;102865.78;5041307;28;46192;-65
2022/02/08 01:28:20;;;;;;;;;11.50;10.50;;;;;10.51;55.61;102859.56;5029987;28;45547;-65
2022/02/08 01:38:53;;;;;;;;;14.50;9.50;;;;;10.51;55.36;102851.56;5030596;28;45274;-65
2022/02/08 01:49:15;;;;;;;;;14.50;11.00;;;;;10.53;54.93;102865.78;5037817;28;45994;-65
2022/02/08 01:51:40;;;;;;;;;12.25;10.75;;;;;10.57;55.05;102868.47;5030945;28;45171;-65
2022/02/08 01:54:06;;;;;;;;;12.25;10.25;;;;;10.53;55.62;102865.78;5040421;28;45649;-65
2022/02/08 01:56:32;;;;;;;;;12.00;11.00;;;;;10.55;55.56;102869.34;5040006;28;46210;-65
2022/02/08 01:58:57;;;;;;;;;11.75;11.50;;;;;10.55;55.11;102872.00;5038961;28;45373;-65
2022/02/08 02:01:23;;;;;;;;;8.50;5.50;;;;;10.54;55.19;102868.47;5029572;28;45514;-65
2022/02/08 02:03:48;;;;;;;;;14.00;10.25;;;;;10.50;55.61;102864.00;5040552;28;45424;-65
2022/02/08 02:06:14;;;;;;;;;12.00;9.50;;;;;10.53;55.42;102863.13;5037449;28;45403;-65
2022/02/08 02:08:39;;;;;;;;;10.75;10.00;;;;;10.52;55.24;102869.34;5037912;28;46663;-65
2022/02/08 02:11:04;;;;;;;;;10.75;7.75;;;;;10.50;55.75;102865.78;5037941;28;45348;-65
2022/02/08 02:16:05;;;;;;;;;11.50;9.75;;;;;10.52;55.54;102875.59;5040017;28;45417;-65
2022/02/08 02:18:31;;;;;;;;;12.75;11.00;;;;;10.51;55.29;102867.56;5039191;28;45624;-65
2022/02/08 02:20:57;;;;;;;;;10.75;10.75;;;;;10.51;55.71;102864.91;5034729;28;45253;-65
2022/02/08 02:23:22;;;;;;;;;11.25;9.75;;;;;10.49;55.82;102862.22;5040286;28;45233;-65
2022/02/08 02:25:48;;;;;;;;;14.00;11.50;;;;;10.52;55.61;102859.56;5037450;28;45210;-65
2022/02/08 02:28:13;;;;;;;;;12.00;9.00;;;;;10.48;55.90;102841.75;5024909;28;45318;-65
2022/02/08 02:30:38;;;;;;;;;12.00;12.00;;;;;10.53;55.83;102865.78;5040696;28;45240;-65
2022/02/08 02:33:07;;;;;;;;;14.75;12.00;;;;;10.54;55.57;102862.22;5035273;28;45296;-65
2022/02/08 02:35:33;;;;;;;;;12.50;11.25;;;;;10.48;55.82;102846.19;5034161;28;47201;-65
2022/02/08 02:37:59;;;;;;;;;14.25;10.25;;;;;10.55;55.71;102864.00;5037285;28;45430;-65
2022/02/08 02:40:26;;;;;;;;;12.75;10.75;;;;;10.56;55.33;102863.13;5039776;28;45325;-65
2022/02/08 02:42:52;;;;;;;;;13.00;11.75;;;;;10.57;56.04;102854.22;5039307;28;45460;-65
2022/02/08 02:45:22;;;;;;;;;11.00;8.25;;;;;10.59;55.59;102851.53;5027814;28;46146;-65
2022/02/08 02:47:52;;;;;;;;;13.00;10.50;;;;;10.60;55.69;102846.19;5035544;28;45695;-65
2022/02/08 02:50:22;;;;;;;;;9.25;9.25;;;;;10.61;55.77;102856.00;5038218;28;45159;-65
2022/02/08 02:52:47;;;;;;;;;14.25;11.75;;;;;10.63;56.09;102850.69;5040527;28;45446;-65
2022/02/08 02:55:15;;;;;;;;;12.50;12.00;;;;;10.61;56.04;102847.09;5039517;28;46574;-65
2022/02/08 02:57:42;;;;;;;;;8.75;7.25;;;;;10.62;55.78;102844.41;5039244;28;45349;-65
2022/02/08 03:00:13;;;;;;;;;13.75;10.00;;;;;10.64;55.62;102853.34;5039496;28;46589;-65
2022/02/08 03:02:51;;;;;;;;;9.75;9.00;;;;;10.66;55.62;102848.88;5037274;28;45320;-65
2022/02/08 03:18:45;;;;;;;;;11.75;11.75;;;;;10.68;56.34;102839.09;5033134;28;45556;-65
2022/02/08 03:21:12;;;;;;;;;13.75;10.25;;;;;10.67;55.79;102842.63;5039301;28;45717;-65
2022/02/08 03:23:38;;;;;;;;;11.00;11.00;;;;;10.69;55.74;102840.88;5034010;28;45257;-65
2022/02/08 03:26:04;;;;;;;;;8.00;6.00;;;;;10.66;55.90;102832.88;5039628;28;46427;-65
2022/02/08 03:28:30;;;;;;;;;9.75;9.50;;;;;10.72;56.21;102839.97;5026293;28;45470;-65
2022/02/08 03:30:55;;;;;;;;;14.00;11.00;;;;;10.69;56.38;102838.22;5028648;28;45295;-65
2022/02/08 03:33:22;;;;;;;;;10.00;10.00;;;;;10.70;56.23;102844.44;5026600;28;45327;-65
2022/02/08 03:35:50;;;;;;;;;12.75;9.75;;;;;10.71;55.90;102835.53;5026872;28;46993;-65
2022/02/08 03:38:18;;;;;;;;;13.75;9.25;;;;;10.68;55.94;102832.88;5038705;28;45313;-65
2022/02/08 03:40:46;;;;;;;;;11.00;9.00;;;;;10.67;56.28;102839.97;5032735;28;45331;-65
2022/02/08 03:45:38;;;;;;;;;11.50;9.50;;;;;10.73;56.75;102853.34;5042713;28;45542;-65
2022/02/08 03:48:04;;;;;;;;;10.00;9.25;;;;;10.73;56.84;102850.66;5041748;28;45266;-65
2022/02/08 03:50:29;;;;;;;;;13.50;8.75;;;;;10.74;56.54;102847.13;5040387;28;45403;-65
2022/02/08 03:52:54;;;;;;;;;11.00;9.25;;;;;10.77;56.82;102853.34;5043553;28;45237;-65
2022/02/08 03:55:20;;;;;;;;;9.00;8.00;;;;;10.75;56.37;102848.00;5042423;28;48483;-65
2022/02/08 03:57:45;;;;;;;;;9.50;9.50;;;;;10.78;56.71;102855.13;5042708;28;45365;-65
2022/02/08 04:00:11;;;;;;;;;7.75;7.75;;;;;10.77;56.55;102856.91;5042106;28;45324;-65
2022/02/08 04:02:41;;;;;;;;;9.75;8.25;;;;;10.79;56.88;102856.91;5042202;28;45288;-65
2022/02/08 04:05:33;;;;;;;;;10.25;8.75;;;;;10.79;56.39;102857.78;5042063;28;46169;-65
2022/02/08 04:07:57;;;;;;;;;8.25;6.00;;;;;10.78;56.59;102850.69;5042223;28;45285;-65
2022/02/08 04:10:26;;;;;;;;;11.00;9.25;;;;;10.78;56.34;102841.78;5039764;28;45321;-65
2022/02/08 04:13:17;;;;;;;;;10.75;10.75;;;;;10.76;56.81;102847.13;5042406;28;45463;-65
2022/02/08 04:31:54;;;;;;;;;9.00;8.75;;;;;10.72;56.92;102864.91;5036261;28;45379;-65
2022/02/08 04:47:45;;;;;;;;;4.25;4.25;;;;;10.73;57.25;102860.47;5009645;28;46128;-65
2022/02/08 04:50:13;;;;;;;;;9.50;9.00;;;;;10.68;56.91;102855.13;5027440;28;45511;-65
2022/02/08 04:52:39;;;;;;;;;11.00;10.00;;;;;10.68;57.06;102854.25;5041668;28;45412;-65
2022/02/08 04:55:35;;;;;;;;;10.25;9.25;;;;;10.68;56.96;102857.78;5041705;28;45229;-66
2022/02/08 04:58:16;;;;;;;;;8.00;5.50;;;;;10.69;57.42;102856.00;5039841;28;45473;-65
2022/02/08 05:42:09;;;;;;;;;12.00;8.50;;;;;10.82;58.12;102852.44;5038216;28;45455;-65
2022/02/08 05:44:46;;;;;;;;;9.75;7.75;;;;;10.81;58.04;102852.44;5040186;28;45237;-65
2022/02/08 05:47:11;;;;;;;;;9.75;8.00;;;;;10.80;58.14;102856.03;5033667;28;45276;-65
2022/02/08 05:49:42;;;;;;;;;5.00;5.00;;;;;10.79;57.90;102847.09;5040369;28;45367;-65
2022/02/08 05:54:37;;;;;;;;;10.25;9.00;;;;;10.82;57.84;102849.78;5040402;28;45438;-65
2022/02/08 05:57:03;;;;;;;;;8.50;8.50;;;;;10.81;58.24;102841.75;5038986;28;45293;-65
2022/02/08 05:59:28;;;;;;;;;10.25;8.25;;;;;10.83;58.50;102843.56;5032958;28;45380;-65
2022/02/08 06:01:54;;;;;;;;;8.25;8.25;;;;;10.84;58.24;102839.09;5039604;28;45284;-65
2022/02/08 06:04:19;;;;;;;;;9.75;6.25;;;;;10.82;58.41;102838.22;5038932;28;45265;-65
2022/02/08 06:06:44;;;;;;;;;8.25;8.00;;;;;10.84;58.48;102839.09;5040810;28;45402;-65
2022/02/08 06:09:10;;;;;;;;;0.00;0.00;;;;;10.83;58.44;102838.22;5039958;28;45592;-65
2022/02/08 06:11:38;;;;;;;;;8.75;8.75;;;;;10.75;58.63;102826.63;5039100;28;46070;-65
2022/02/08 06:14:04;;;;;;;;;12.50;7.25;;;;;10.86;58.40;102845.31;5039646;28;45600;-65
2022/02/08 06:16:32;;;;;;;;;8.50;7.25;;;;;10.87;59.11;102845.31;5023703;28;45373;-65
2022/02/08 06:18:57;;;;;;;;;6.75;6.00;;;;;10.85;58.35;102839.09;5021864;28;45520;-65
2022/02/08 06:21:23;;;;;;;;;9.25;5.75;;;;;10.86;58.68;102829.28;5037805;28;46238;-65
2022/02/08 06:23:48;;;;;;;;;10.75;9.75;;;;;10.86;59.13;102838.22;5041224;28;45397;-65
2022/02/08 06:26:15;;;;;;;;;5.50;5.50;;;;;10.91;59.47;102851.59;5038462;28;45443;-65
2022/02/08 06:28:41;;;;;;;;;9.25;5.75;;;;;10.89;59.18;102846.22;5030837;28;45474;-65
2022/02/08 06:31:06;;;;;;;;;12.75;8.75;;;;;10.90;59.16;102845.31;5027269;28;45469;-65
2022/02/08 06:33:31;;;;;;;;;8.50;6.75;;;;;10.94;59.39;102848.88;5033231;28;45287;-65
2022/02/08 06:35:57;;;;;;;;;8.50;6.00;;;;;10.95;59.56;102853.34;5030928;28;45335;-65
2022/02/08 06:38:22;;;;;;;;;9.00;6.75;;;;;10.93;59.75;102848.00;5037184;28;45174;-65
2022/02/08 06:40:51;;;;;;;;;7.25;4.00;;;;;10.99;59.51;102854.22;5038343;28;45380;-65
2022/02/08 06:43:19;;;;;;;;;3.75;3.75;;;;;11.00;59.82;102856.03;5036744;28;45772;-65
2022/02/08 06:45:44;;;;;;;;;5.00;5.00;;;;;11.03;59.91;102858.69;5037980;28;45483;-65
2022/02/08 06:48:10;;;;;;;;;7.25;7.25;;;;;11.02;59.71;102859.56;5032838;28;46073;-65
2022/02/08 06:50:36;;;;;;;;;6.00;6.00;;;;;11.07;59.54;102865.81;5018209;28;46290;-65
2022/02/08 06:53:02;;;;;;;;;12.50;6.00;;;;;11.06;60.00;102861.34;5040544;28;45254;-65
2022/02/08 06:55:28;;;;;;;;;6.00;5.00;;;;;11.11;60.19;102856.91;5036167;28;45630;-65
2022/02/08 06:58:06;;;;;;;;;5.25;4.00;;;;;11.07;60.03;102861.34;5040013;28;45308;-65
2022/02/08 07:00:37;;;;;;;;;7.00;6.25;;;;;11.10;59.89;102874.72;5034865;28;47131;-66
2022/02/08 07:03:07;;;;;;;;;9.75;6.75;;;;;11.07;59.72;102865.81;5039522;28;45741;-66
2022/02/08 07:05:33;;;;;;;;;7.00;6.00;;;;;11.10;60.13;102879.19;5039766;28;45265;-65
2022/02/08 07:07:59;;;;;;;;;5.75;5.75;;;;;11.08;60.09;102873.84;5037866;28;45723;-65
2022/02/08 07:10:26;;;;;;;;;6.00;6.00;;;;;11.11;60.11;102872.97;5039222;28;46456;-65
2022/02/08 07:12:52;;;;;;;;;7.25;7.25;;;;;11.10;60.10;102879.19;5036473;28;45327;-66
2022/02/08 07:15:18;;;;;;;;;5.50;4.25;;;;;11.12;60.04;102880.06;5037207;28;45949;-65
2022/02/08 07:17:44;;;;;;;;;6.75;5.50;;;;;11.11;60.47;102875.63;5039536;28;45242;-66
2022/02/08 07:20:10;;;;;;;;;6.00;6.00;;;;;11.10;60.48;102884.53;5041384;28;46136;-66
2022/02/08 07:22:35;;;;;;;;;6.00;6.00;;;;;11.10;60.51;102881.84;5037279;28;45231;-66
2022/02/08 07:25:01;;;;;;;;;11.50;9.00;;;;;11.09;60.43;102889.00;5040683;28;45372;-66
2022/02/08 07:27:27;;;;;;;;;10.00;7.00;;;;;11.10;60.17;102896.09;5042085;28;45400;-66
2022/02/08 07:29:54;;;;;;;;;7.00;7.00;;;;;11.12;60.44;102902.31;5039002;28;45339;-66
2022/02/08 07:32:33;;;;;;;;;7.00;6.00;;;;;11.12;60.76;102896.97;5039482;28;45556;-65
2022/02/08 07:40:29;;;;;;;;;7.00;6.50;;;;;11.16;61.10;102894.31;5040891;28;45431;-65
2022/02/08 07:42:55;;;;;;;;;8.50;6.00;;;;;11.15;60.83;102900.56;5039052;28;46590;-66
2022/02/08 07:45:21;;;;;;;;;10.00;7.25;;;;;11.16;60.96;102900.56;5036674;28;45406;-66
2022/02/08 07:47:46;;;;;;;;;10.50;6.25;;;;;11.16;60.32;102892.56;5036732;28;45726;-67
2022/02/08 07:50:14;;;;;;;;;10.50;7.25;;;;;11.19;60.62;102899.66;5036187;28;45419;-66
2022/02/08 07:52:40;;;;;;;;;6.00;6.00;;;;;11.16;61.09;102892.56;5037813;28;45380;-66
2022/02/08 07:55:06;;;;;;;;;8.00;5.75;;;;;11.23;60.75;102899.66;5037965;28;45415;-66
2022/02/08 07:57:31;;;;;;;;;7.75;7.50;;;;;11.22;60.82;102897.88;5032616;28;45455;-66
2022/02/08 07:59:56;;;;;;;;;8.00;6.00;;;;;11.26;60.70;102904.09;5036346;28;46092;-66
2022/02/08 08:02:22;;;;;;;;;7.00;6.00;;;;;11.26;61.30;102906.78;5038153;28;45332;-66
2022/02/08 08:04:47;;;;;;;;;9.00;5.75;;;;;11.25;60.84;102897.88;5037795;28;45384;-66
2022/02/08 08:07:12;;;;;;;;;8.00;7.25;;;;;11.29;60.76;102901.44;5036255;28;45653;-66
2022/02/08 08:09:41;;;;;;;;;9.00;6.50;;;;;11.30;60.80;102903.22;5037014;28;45443;-66
2022/02/08 08:12:10;;;;;;;;;7.50;6.00;;;;;11.29;60.59;102901.44;5036890;28;45362;-66
2022/02/08 08:14:35;;;;;;;;;9.00;9.00;;;;;11.29;60.89;102894.31;5037732;28;45427;-66
2022/02/08 08:17:25;;;;;;;;;12.50;6.50;;;;;11.31;61.00;102891.66;5036275;28;45302;-66
2022/02/08 08:19:47;;;;;;;;;10.75;10.25;;;;;11.28;61.08;102879.16;5035704;28;46287;-66
2022/02/08 08:22:13;;;;;;;;;6.00;5.00;;;;;11.32;60.93;102891.63;5032845;28;45384;-66
2022/02/08 08:24:38;;;;;;;;;8.25;7.00;;;;;11.27;61.09;102887.19;5037366;28;45791;-66
2022/02/08 08:27:05;;;;;;;;;8.25;6.00;;;;;11.36;61.20;102897.88;5041308;28;45601;-66
2022/02/08 08:29:30;;;;;;;;;11.50;10.25;;;;;11.35;60.92;102889.84;5037599;28;46136;-66
2022/02/08 08:31:56;;;;;;;;;7.50;7.00;;;;;11.34;61.56;102890.75;5041755;28;45287;-66
2022/02/08 08:34:22;;;;;;;;;8.00;8.00;;;;;11.34;61.43;102893.41;5041324;28;45435;-66
2022/02/08 08:36:50;;;;;;;;;7.00;7.00;;;;;11.37;61.14;102890.75;5041433;28;45460;-66
2022/02/08 08:39:18;;;;;;;;;9.25;7.00;;;;;11.35;61.26;102889.84;5040380;28;45680;-66
2022/02/08 08:41:50;;;;;;;;;7.00;7.00;;;;;11.34;60.90;102890.75;5030713;28;45494;-66
2022/02/08 08:52:00;;;;;;;;;12.75;10.75;;;;;11.37;61.27;102905.00;5030182;28;45566;-66
2022/02/08 08:54:26;;;;;;;;;11.25;11.25;;;;;11.30;61.56;102895.22;5044447;28;45775;-66
2022/02/08 08:56:52;;;;;;;;;14.00;11.75;;;;;11.33;61.18;102903.22;5040231;28;45312;-66
2022/02/08 08:59:19;;;;;;;;;10.00;10.00;;;;;11.30;61.53;102898.75;5035976;28;45502;-66
2022/02/08 09:01:46;;;;;;;;;13.25;10.50;;;;;11.30;61.32;102898.75;5038104;28;46930;-65
2022/02/08 09:04:12;;;;;;;;;10.75;9.50;;;;;11.34;61.39;102905.00;5041316;28;45249;-65
2022/02/08 09:06:38;;;;;;;;;11.50;11.50;;;;;11.31;61.04;102905.03;5040076;28;45473;-66
2022/02/08 09:09:10;;;;;;;;;12.25;11.75;;;;;11.34;61.48;102910.34;5039247;28;46152;-66
2022/02/08 09:14:24;;;;;;;;;19.75;14.25;;;;;11.28;61.21;102883.63;5041040;28;45654;-66
2022/02/08 09:17:16;;;;;;;;;13.00;11.75;;;;;11.37;61.04;102901.44;5038882;28;45498;-66
2022/02/08 09:20:15;;;;;;;;;13.00;12.00;;;;;11.35;61.17;102901.44;5035164;28;45369;-66
2022/02/08 09:30:34;;;;;;;;;15.50;13.50;;;;;11.26;61.55;102882.72;5039611;28;45404;-65
2022/02/08 09:33:00;;;;;;;;;12.75;11.00;;;;;11.33;61.26;102895.22;5031911;28;45466;-65
2022/02/08 09:35:29;;;;;;;;;14.00;12.50;;;;;11.36;61.35;102896.97;5039955;28;45398;-66
2022/02/08 09:37:55;;;;;;;;;17.50;15.00;;;;;11.37;61.39;102896.97;5025778;28;45345;-66
2022/02/08 10:00:23;;;;;;;;;16.00;14.00;;;;;11.12;62.51;102888.06;5135845;27;45409;-66
2022/02/08 10:02:48;;;;;;;;;13.50;12.50;;;;;11.15;62.70;102881.84;5117644;27;45529;-66
2022/02/08 10:05:14;;;;;;;;;16.25;13.00;;;;;11.24;62.17;102889.84;5117454;27;45562;-66
2022/02/08 10:07:40;;;;;;;;;14.75;11.75;;;;;11.31;62.41;102894.31;5114649;27;45353;-67
2022/02/08 10:10:09;;;;;;;;;13.75;11.75;;;;;11.35;62.22;102890.75;5102397;27;46340;-66
2022/02/08 10:24:03;;;;;;;;;19.00;12.25;;;;;11.48;62.37;102875.56;5110282;27;45828;-65
2022/02/08 10:29:12;;;;;;;;;11.00;11.00;;;;;11.61;62.36;102889.78;5113469;27;45486;-65
2022/02/08 10:40:04;;;;;;;;;11.00;11.00;;;;;11.77;62.40;102896.88;5112821;27;45467;-65
2022/02/08 10:42:30;;;;;;;;;11.75;11.00;;;;;11.79;62.17;102892.41;5112694;27;45481;-65
2022/02/08 10:45:00;;;;;;;;;17.75;15.50;;;;;11.81;62.31;102887.06;5116347;27;45372;-65
2022/02/08 10:47:40;;;;;;;;;16.25;12.75;;;;;11.85;62.31;102889.72;5114708;27;45418;-65
2022/02/08 10:50:09;;;;;;;;;13.25;13.25;;;;;11.91;62.19;102895.94;5110625;27;45329;-65
2022/02/08 10:52:36;;;;;;;;;10.75;10.50;;;;;11.90;62.46;102888.84;5103356;27;45627;-65
2022/02/08 10:55:13;;;;;;;;;10.75;9.25;;;;;11.95;62.20;102897.78;5116119;27;45794;-66
2022/02/08 10:57:49;;;;;;;;;10.75;10.75;;;;;11.95;62.03;102893.31;5105820;27;48618;-65
2022/02/08 11:00:20;;;;;;;;;8.00;8.00;;;;;11.96;62.05;102889.75;5105396;27;45717;-65
2022/02/08 11:02:48;;;;;;;;;10.50;10.00;;;;;11.96;62.51;102881.72;5097842;27;45654;-65
2022/02/08 11:05:39;;;;;;;;;11.00;11.00;;;;;11.98;62.48;102887.06;5092240;27;45304;-65
2022/02/08 11:21:39;;;;;;;;;14.50;13.00;;;;;12.12;62.33;102871.81;5092251;27;46467;-65
2022/02/08 11:24:38;;;;;;;;;14.00;12.25;;;;;12.18;62.45;102870.91;5101727;27;45988;-65
2022/02/08 11:27:18;;;;;;;;;11.25;11.25;;;;;12.19;62.66;102865.50;5100067;27;47429;-66
2022/02/08 11:29:59;;;;;;;;;15.50;12.75;;;;;12.23;62.40;102872.66;5097368;27;45373;-65
2022/02/08 11:32:48;;;;;;;;;12.50;10.00;;;;;12.26;62.10;102865.50;5097511;27;45717;-66
2022/02/08 12:02:56;;;;;;;;;12.00;10.75;;;;;12.47;62.15;102822.50;5099363;27;45544;-65
2022/02/08 12:05:35;;;;;;;;;14.50;13.75;;;;;12.48;62.14;102818.94;5099852;27;45719;-66
2022/02/08 12:08:03;;;;;;;;;15.50;15.00;;;;;12.48;62.35;102813.59;5101328;27;47065;-66
2022/02/08 12:10:45;;;;;;;;;13.50;13.00;;;;;12.53;62.05;102813.53;5086194;27;45779;-66
2022/02/08 12:35:25;;;;;;;;;7.25;5.00;;;;;12.70;62.38;102794.66;5097489;27;45468;-68
2022/02/08 12:57:56;;;;;;;;;5.00;4.50;;;;;12.94;61.99;102758.69;5100720;27;45274;-68
2022/02/08 14:21:14;;;;;;;;;5.25;5.25;;;;;13.47;60.86;102713.44;5088002;27;45559;-65
2022/02/08 14:36:56;;;;;;;;;5.00;4.50;;;;;13.50;60.34;102706.22;5115596;27;45376;-66
2022/02/08 14:59:55;;;;;;;;;5.25;5.25;;;;;13.57;60.40;102696.28;5101690;27;46971;-66
2022/02/08 15:09:35;;;;;;;;;6.25;5.00;;;;;13.58;60.08;102698.09;5100117;27;45498;-66
2022/02/08 15:14:38;;;;;;;;;7.00;7.00;;;;;13.58;60.32;102705.22;5102165;27;45356;-65
2022/02/08 15:17:03;;;;;;;;;7.25;6.00;;;;;13.61;60.39;102700.69;5101439;27;45654;-66
2022/02/08 15:19:29;;;;;;;;;7.25;5.00;;;;;13.63;60.35;102706.03;5101700;27;45638;-65
2022/02/08 15:21:55;;;;;;;;;6.00;6.00;;;;;13.60;60.23;102701.63;5097296;27;46087;-66
2022/02/08 15:24:20;;;;;;;;;6.75;6.75;;;;;13.63;60.40;102706.97;5101948;27;45504;-66
2022/02/08 15:26:48;;;;;;;;;6.75;6.75;;;;;13.57;60.44;102696.28;5115300;27;45712;-66
2022/02/08 15:29:16;;;;;;;;;6.75;5.00;;;;;13.64;60.30;102705.16;5101559;27;45583;-66
2022/02/08 15:31:41;;;;;;;;;6.75;6.75;;;;;13.63;60.31;102712.31;5103051;27;46305;-66
2022/02/08 15:34:06;;;;;;;;;8.00;6.00;;;;;13.65;60.28;102704.25;5102051;27;45385;-66
2022/02/08 15:36:32;;;;;;;;;7.00;7.00;;;;;13.65;60.21;102701.56;5101000;27;45491;-66
2022/02/08 15:39:05;;;;;;;;;6.75;6.75;;;;;13.66;60.27;102714.06;5094464;27;45440;-66
2022/02/08 15:41:34;;;;;;;;;8.75;6.75;;;;;13.65;60.34;102701.56;5097037;27;47117;-66
2022/02/08 15:43:59;;;;;;;;;8.25;6.50;;;;;13.67;60.43;102702.44;5090698;27;45361;-66
2022/02/08 15:46:26;;;;;;;;;6.75;6.75;;;;;13.59;60.03;102688.22;5101155;27;45463;-66
2022/02/08 15:48:52;;;;;;;;;6.75;6.75;;;;;13.65;60.46;102698.88;5101062;27;45448;-66
2022/02/08 15:51:26;;;;;;;;;7.00;6.50;;;;;13.68;60.22;102704.19;5100280;27;46161;-65
2022/02/08 16:05:13;;;;;;;;;6.25;6.25;;;;;13.63;60.33;102685.50;5098056;27;45427;-66
2022/02/08 16:07:17;;;;;;;;;7.50;7.50;;;;;13.64;60.19;102692.59;5097959;27;45659;-66
2022/02/08 16:09:48;;;;;;;;;6.75;6.75;;;;;13.63;60.39;102693.53;5100800;27;45463;-66
2022/02/08 16:22:45;;;;;;;;;5.25;5.25;;;;;13.62;60.18;102689.06;5096652;27;45406;-66
2022/02/08 16:45:57;;;;;;;;;5.75;5.75;;;;;13.62;60.40;102701.59;5099458;27;49068;-66
2022/02/08 16:46:09;;;;;;;;;7.00;7.00;;;;;13.57;60.27;102701.66;5092873;27;45589;-66
2022/02/08 16:53:04;;;;;;;;;8.00;7.00;;;;;13.59;60.01;102705.22;5094699;27;45717;-66
2022/02/08 16:55:47;;;;;;;;;5.25;5.25;;;;;13.50;60.11;102690.13;5097152;27;47465;-66
2022/02/08 17:00:45;;;;;;;;;5.00;5.00;;;;;13.53;60.11;102697.22;5097666;27;45307;-65
2022/02/08 17:03:11;;;;;;;;;7.00;5.25;;;;;13.56;60.10;102702.56;5100604;27;45475;-66
2022/02/08 17:05:37;;;;;;;;;5.00;5.00;;;;;13.58;60.01;102706.13;5099107;27;46980;-66
2022/02/08 17:08:02;;;;;;;;;5.75;5.00;;;;;13.56;59.91;102705.25;5094778;27;45262;-66
2022/02/08 17:13:05;;;;;;;;;4.25;4.25;;;;;13.51;60.00;102702.66;5100524;27;45498;-66
2022/02/08 17:47:41;;;;;;;;;6.50;6.00;;;;;13.46;60.00;102699.09;5096762;27;45696;-65
2022/02/08 17:50:13;;;;;;;;;9.75;7.25;;;;;13.44;60.22;102703.63;5098391;27;45586;-65
2022/02/08 17:52:40;;;;;;;;;9.50;8.00;;;;;13.45;60.23;102715.25;5098621;27;45407;-65
2022/02/08 17:55:07;;;;;;;;;7.00;7.00;;;;;13.41;60.25;102716.19;5098332;27;45424;-66
2022/02/08 17:57:33;;;;;;;;;5.00;5.00;;;;;13.38;60.23;102713.53;5099584;27;46095;-65
2022/02/08 17:59:58;;;;;;;;;9.00;9.00;;;;;13.41;60.15;102717.06;5093298;27;45502;-65
2022/02/08 18:02:24;;;;;;;;;8.00;7.75;;;;;13.41;60.39;102718.88;5100027;27;45329;-65
2022/02/08 18:04:53;;;;;;;;;7.25;6.75;;;;;13.41;60.11;102716.19;5100082;27;45300;-66
2022/02/08 18:07:21;;;;;;;;;10.75;9.00;;;;;13.39;60.32;102720.69;5099448;27;45399;-65
2022/02/08 18:09:48;;;;;;;;;8.75;8.50;;;;;13.37;60.37;102725.19;5098432;27;45310;-66
2022/02/08 18:12:15;;;;;;;;;8.75;8.25;;;;;13.34;60.34;102716.25;5091796;27;45977;-66
2022/02/08 18:14:44;;;;;;;;;7.75;7.00;;;;;13.36;60.33;102716.22;5098943;27;45407;-66
2022/02/08 18:17:17;;;;;;;;;10.50;9.50;;;;;13.38;60.13;102717.13;5100783;27;47145;-66
2022/02/08 18:19:49;;;;;;;;;8.00;8.00;;;;;13.38;60.56;102718.91;5102258;27;45424;-66
2022/02/08 18:25:00;;;;;;;;;11.25;9.25;;;;;13.36;60.17;102715.34;5102221;27;45413;-66
2022/02/08 19:08:07;;;;;;;;;5.75;5.75;;;;;13.34;60.23;102726.97;5090708;27;45940;-65
2022/02/08 19:13:37;;;;;;;;;6.75;6.00;;;;;13.29;60.30;102718.06;5097299;27;45542;-64
2022/02/08 19:18:40;;;;;;;;;7.00;6.25;;;;;13.31;60.01;102712.69;5093155;27;46252;-65
2022/02/08 19:23:36;;;;;;;;;6.75;5.00;;;;;13.34;60.07;102720.75;5098626;27;45416;-65
2022/02/08 19:26:06;;;;;;;;;7.00;6.00;;;;;13.38;59.97;102716.22;5095532;27;45894;-65
2022/02/08 19:28:32;;;;;;;;;9.75;7.00;;;;;13.34;60.01;102694.78;5098471;27;45386;-66
2022/02/08 19:30:58;;;;;;;;;7.75;7.75;;;;;13.35;60.22;102695.69;5096879;27;45802;-66
2022/02/08 19:33:25;;;;;;;;;8.00;7.75;;;;;13.37;60.03;102696.56;5097393;27;45950;-67
2022/02/08 19:35:53;;;;;;;;;9.50;8.50;;;;;13.38;60.30;102700.13;5098256;27;45608;-65
2022/02/08 19:38:21;;;;;;;;;9.75;8.50;;;;;13.36;60.26;102694.78;5098676;27;45690;-66
2022/02/08 19:40:49;;;;;;;;;9.25;8.00;;;;;13.36;60.16;102691.22;5107636;27;46061;-66
2022/02/08 19:43:16;;;;;;;;;10.50;10.00;;;;;13.33;60.25;102701.09;5096252;27;45579;-66
2022/02/08 19:45:44;;;;;;;;;7.75;7.75;;;;;13.35;60.34;102709.13;5096681;27;45480;-65
2022/02/08 19:48:12;;;;;;;;;9.00;8.50;;;;;13.26;60.47;102685.91;5098140;27;45580;-66
2022/02/08 19:50:40;;;;;;;;;15.00;15.00;;;;;13.33;60.11;102706.44;5106077;27;46014;-66
2022/02/08 19:53:10;;;;;;;;;14.75;11.00;;;;;13.32;60.28;102706.47;5113538;27;45902;-66
2022/02/08 19:58:11;;;;;;;;;12.25;11.50;;;;;13.25;60.41;102700.25;5098407;27;45756;-66
2022/02/08 20:00:42;;;;;;;;;11.50;8.25;;;;;13.26;60.24;102707.38;5097973;27;46378;-67
2022/02/08 20:03:10;;;;;;;;;7.50;7.50;;;;;13.28;60.33;102707.34;5107343;27;45541;-67